createdAt,value
2018-06-21T00:00:39.832Z,0
2018-06-21T00:01:39.898Z,0
2018-06-21T00:02:39.897Z,0
2018-06-21T00:03:39.896Z,0
2018-06-21T00:04:39.899Z,0
2018-06-21T00:05:39.884Z,0
2018-06-21T00:06:39.816Z,0
2018-06-21T00:07:39.826Z,0
2018-06-21T00:08:39.803Z,0
2018-06-21T00:09:39.819Z,0
2018-06-21T00:10:39.824Z,0
2018-06-21T00:11:39.897Z,0
2018-06-21T00:12:39.774Z,0
2018-06-21T00:13:39.830Z,0
2018-06-21T00:14:39.776Z,0
2018-06-21T00:15:39.850Z,0
2018-06-21T00:16:39.944Z,0
2018-06-21T00:17:39.907Z,0
2018-06-21T00:18:40.009Z,0
2018-06-21T00:19:39.833Z,0
2018-06-21T00:26:55.876Z,0
2018-06-21T00:27:39.902Z,0
2018-06-21T00:32:39.878Z,0
2018-06-21T00:33:39.891Z,0
2018-06-21T00:34:39.915Z,0
2018-06-21T00:35:39.837Z,0
2018-06-21T00:36:39.913Z,0
2018-06-21T00:37:39.875Z,0
2018-06-21T00:38:39.793Z,0
2018-06-21T00:39:39.862Z,0
2018-06-21T00:40:39.918Z,0
2018-06-21T00:41:39.841Z,0
2018-06-21T00:42:39.880Z,0
2018-06-21T00:43:39.878Z,0
2018-06-21T00:44:39.918Z,0
2018-06-21T00:45:39.926Z,0
2018-06-21T00:46:39.854Z,0
2018-06-21T00:47:39.827Z,0
2018-06-21T00:48:39.927Z,0
2018-06-21T00:49:39.927Z,0
2018-06-21T00:50:39.929Z,0
2018-06-21T00:51:39.861Z,0
2018-06-21T00:52:39.862Z,0
2018-06-21T00:53:39.933Z,0
2018-06-21T00:54:39.933Z,0
2018-06-21T00:55:39.892Z,0
2018-06-21T00:56:39.936Z,0
2018-06-21T00:57:39.869Z,0
2018-06-21T00:58:39.881Z,0
2018-06-21T00:59:39.967Z,0
2018-06-21T01:00:39.833Z,0
2018-06-21T01:01:39.878Z,0
2018-06-21T01:02:39.909Z,0
2018-06-21T01:03:39.937Z,0
2018-06-21T01:04:39.938Z,0
2018-06-21T01:05:39.929Z,0
2018-06-21T01:06:39.936Z,0
2018-06-21T01:07:39.858Z,0
2018-06-21T01:08:39.877Z,0
2018-06-21T01:09:39.937Z,0
2018-06-21T01:10:39.865Z,0
2018-06-21T01:11:39.847Z,0
2018-06-21T01:12:39.932Z,0
2018-06-21T01:13:39.884Z,0
2018-06-21T01:14:39.938Z,0
2018-06-21T01:15:39.910Z,0
2018-06-21T01:16:39.907Z,0
2018-06-21T01:17:39.912Z,0
2018-06-21T01:18:39.911Z,0
2018-06-21T01:19:39.970Z,0
2018-06-21T01:20:39.953Z,0
2018-06-21T01:21:39.908Z,0
2018-06-21T01:22:39.850Z,0
2018-06-21T01:23:39.978Z,0
2018-06-21T01:24:39.974Z,0
2018-06-21T01:25:39.968Z,0
2018-06-21T01:26:39.929Z,0
2018-06-21T01:27:39.860Z,0
2018-06-21T01:28:39.971Z,0
2018-06-21T01:29:39.855Z,0
2018-06-21T01:30:39.857Z,0
2018-06-21T01:31:39.862Z,0
2018-06-21T01:32:39.989Z,0
2018-06-21T01:33:39.997Z,0
2018-06-21T01:34:39.867Z,0
2018-06-21T01:35:39.988Z,0
2018-06-21T01:36:39.996Z,0
2018-06-21T01:37:39.898Z,0
2018-06-21T01:38:39.984Z,0
2018-06-21T01:39:39.864Z,0
2018-06-21T01:40:39.978Z,0
2018-06-21T01:41:39.960Z,0
2018-06-21T01:42:40.004Z,0
2018-06-21T01:43:39.871Z,0
2018-06-21T01:44:40.040Z,0
2018-06-21T01:45:39.992Z,0
2018-06-21T01:46:39.864Z,0
2018-06-21T01:47:39.867Z,0
2018-06-21T01:48:39.968Z,0
2018-06-21T01:49:39.938Z,0
2018-06-21T01:50:40.005Z,0
2018-06-21T01:51:39.925Z,0
2018-06-21T01:52:39.942Z,0
2018-06-21T01:53:39.968Z,0
2018-06-21T01:54:39.953Z,0
2018-06-21T01:55:39.950Z,0
2018-06-21T01:56:39.936Z,0
2018-06-21T01:57:39.975Z,0
2018-06-21T01:58:40.020Z,0
2018-06-21T01:59:40.033Z,0
2018-06-21T02:00:39.947Z,0
2018-06-21T02:01:39.918Z,0
2018-06-21T02:02:39.948Z,0
2018-06-21T02:03:39.917Z,0
2018-06-21T02:04:39.896Z,0
2018-06-21T02:05:39.978Z,0
2018-06-21T02:06:39.917Z,0
2018-06-21T02:07:39.911Z,0
2018-06-21T02:08:39.984Z,0
2018-06-21T02:09:39.918Z,0
2018-06-21T02:10:39.982Z,0
2018-06-21T02:11:39.917Z,0
2018-06-21T02:12:39.913Z,0
2018-06-21T02:13:39.989Z,0
2018-06-21T02:14:39.919Z,0
2018-06-21T02:15:39.950Z,0
2018-06-21T02:16:39.913Z,0
2018-06-21T02:17:39.910Z,0
2018-06-21T02:18:39.948Z,0
2018-06-21T02:19:40.015Z,0
2018-06-21T02:20:39.945Z,0
2018-06-21T02:21:39.986Z,0
2018-06-21T02:22:39.931Z,0
2018-06-21T02:23:39.954Z,0
2018-06-21T02:24:39.893Z,0
2018-06-21T02:25:39.986Z,0
2018-06-21T02:26:39.982Z,0
2018-06-21T02:27:39.919Z,0
2018-06-21T02:28:39.934Z,0
2018-06-21T02:29:39.899Z,0
2018-06-21T02:30:39.991Z,0
2018-06-21T02:31:39.901Z,0
2018-06-21T02:32:39.995Z,0
2018-06-21T02:33:39.992Z,0
2018-06-21T02:34:39.990Z,0
2018-06-21T02:35:39.995Z,0
2018-06-21T02:36:39.997Z,0
2018-06-21T02:37:40.011Z,0
2018-06-21T02:38:40.022Z,0
2018-06-21T02:39:40.031Z,0
2018-06-21T02:40:40.000Z,0
2018-06-21T02:41:40.034Z,0
2018-06-21T02:42:39.967Z,0
2018-06-21T02:43:40.027Z,0
2018-06-21T02:44:39.974Z,0
2018-06-21T02:45:40.027Z,0
2018-06-21T02:46:39.934Z,0
2018-06-21T02:47:39.899Z,0
2018-06-21T02:48:39.873Z,0
2018-06-21T02:49:39.934Z,0
2018-06-21T02:50:39.935Z,0
2018-06-21T02:51:39.929Z,0
2018-06-21T02:52:40.005Z,0
2018-06-21T02:53:39.904Z,0
2018-06-21T02:54:39.971Z,0
2018-06-21T02:55:39.904Z,0
2018-06-21T02:56:40.016Z,0
2018-06-21T02:57:39.963Z,0
2018-06-21T02:58:39.985Z,0
2018-06-21T02:59:40.057Z,0
2018-06-21T03:00:39.918Z,0
2018-06-21T03:01:40.013Z,0
2018-06-21T03:02:39.936Z,0
2018-06-21T03:03:39.924Z,0
2018-06-21T03:04:40.020Z,0
2018-06-21T03:05:39.956Z,0
2018-06-21T03:06:40.018Z,0
2018-06-21T03:07:40.046Z,0
2018-06-21T03:08:39.992Z,0
2018-06-21T03:09:40.051Z,0
2018-06-21T03:10:40.048Z,0
2018-06-21T03:11:39.924Z,0
2018-06-21T03:12:40.060Z,0
2018-06-21T03:13:40.045Z,0
2018-06-21T03:14:40.002Z,0
2018-06-21T03:15:39.994Z,0
2018-06-21T03:16:39.957Z,0
2018-06-21T03:17:39.963Z,0
2018-06-21T03:18:40.027Z,0
2018-06-21T03:19:39.968Z,0
2018-06-21T03:20:40.031Z,0
2018-06-21T03:21:39.984Z,0
2018-06-21T03:22:40.029Z,0
2018-06-21T03:23:40.028Z,0
2018-06-21T03:24:40.029Z,0
2018-06-21T03:25:40.027Z,0
2018-06-21T03:26:39.934Z,0
2018-06-21T03:27:40.050Z,0
2018-06-21T03:28:39.967Z,0
2018-06-21T03:29:40.030Z,0
2018-06-21T03:30:40.030Z,0
2018-06-21T03:31:39.971Z,0
2018-06-21T03:32:39.958Z,0
2018-06-21T03:33:39.927Z,0
2018-06-21T03:34:39.944Z,0
2018-06-21T03:35:39.993Z,0
2018-06-21T03:36:39.972Z,0
2018-06-21T03:37:40.040Z,0
2018-06-21T03:38:39.975Z,0
2018-06-21T03:39:40.005Z,0
2018-06-21T03:40:39.976Z,0
2018-06-21T03:41:39.976Z,0
2018-06-21T03:42:40.046Z,0
2018-06-21T03:43:40.051Z,0
2018-06-21T03:44:39.973Z,0
2018-06-21T03:45:40.045Z,0
2018-06-21T03:46:39.989Z,0
2018-06-21T03:47:39.897Z,16
2018-06-21T03:48:39.897Z,16
2018-06-21T03:49:39.997Z,18
2018-06-21T03:50:39.898Z,18
2018-06-21T03:51:39.995Z,18
2018-06-21T03:52:39.994Z,19
2018-06-21T03:53:39.946Z,18
2018-06-21T03:54:39.901Z,18
2018-06-21T03:55:39.991Z,19
2018-06-21T03:56:39.920Z,20
2018-06-21T03:57:40.004Z,20
2018-06-21T03:58:39.955Z,21
2018-06-21T03:59:39.925Z,21
2018-06-21T04:00:40.007Z,22
2018-06-21T04:01:39.964Z,23
2018-06-21T04:02:39.923Z,23
2018-06-21T04:03:40.071Z,27
2018-06-21T04:04:39.958Z,30
2018-06-21T04:05:39.988Z,33
2018-06-21T04:06:40.029Z,37
2018-06-21T04:07:40.035Z,38
2018-06-21T04:08:40.094Z,39
2018-06-21T04:09:40.061Z,42
2018-06-21T04:10:39.964Z,49
2018-06-21T04:11:40.019Z,59
2018-06-21T04:12:40.037Z,67
2018-06-21T04:13:40.036Z,66
2018-06-21T04:14:40.025Z,61
2018-06-21T04:15:40.066Z,54
2018-06-21T04:16:40.028Z,50
2018-06-21T04:17:40.005Z,47
2018-06-21T04:18:40.081Z,43
2018-06-21T04:19:40.101Z,41
2018-06-21T04:20:40.000Z,42
2018-06-21T04:21:40.067Z,42
2018-06-21T04:22:40.000Z,44
2018-06-21T04:23:40.068Z,46
2018-06-21T04:24:40.032Z,48
2018-06-21T04:25:40.005Z,51
2018-06-21T04:26:40.055Z,53
2018-06-21T04:27:40.096Z,57
2018-06-21T04:28:39.994Z,60
2018-06-21T04:29:40.112Z,59
2018-06-21T04:30:39.975Z,60
2018-06-21T04:31:40.077Z,60
2018-06-21T04:32:40.055Z,60
2018-06-21T04:33:39.980Z,60
2018-06-21T04:34:39.983Z,61
2018-06-21T04:35:40.044Z,61
2018-06-21T04:36:39.985Z,63
2018-06-21T04:37:39.998Z,66
2018-06-21T04:38:40.082Z,71
2018-06-21T04:39:40.098Z,71
2018-06-21T04:40:40.079Z,72
2018-06-21T04:41:39.999Z,71
2018-06-21T04:42:40.104Z,70
2018-06-21T04:43:40.122Z,69
2018-06-21T04:44:40.085Z,68
2018-06-21T04:45:40.082Z,68
2018-06-21T04:46:40.074Z,69
2018-06-21T04:47:39.957Z,70
2018-06-21T04:48:40.077Z,68
2018-06-21T04:49:40.080Z,69
2018-06-21T04:50:39.992Z,63
2018-06-21T04:51:39.988Z,67
2018-06-21T04:52:40.036Z,77
2018-06-21T04:53:40.235Z,86
2018-06-21T04:54:40.085Z,94
2018-06-21T04:55:39.998Z,104
2018-06-21T04:56:40.092Z,111
2018-06-21T04:57:40.029Z,118
2018-06-21T04:58:40.025Z,123
2018-06-21T04:59:40.092Z,127
2018-06-21T05:00:40.032Z,126
2018-06-21T05:01:40.032Z,118
2018-06-21T05:02:40.030Z,112
2018-06-21T05:03:40.035Z,123
2018-06-21T05:04:40.096Z,136
2018-06-21T05:05:40.100Z,136
2018-06-21T05:06:40.113Z,124
2018-06-21T05:07:40.065Z,120
2018-06-21T05:08:40.054Z,122
2018-06-21T05:09:40.055Z,114
2018-06-21T05:10:40.073Z,110
2018-06-21T05:11:40.098Z,113
2018-06-21T05:12:40.065Z,113
2018-06-21T05:13:40.081Z,112
2018-06-21T05:14:40.104Z,115
2018-06-21T05:15:40.137Z,115
2018-06-21T05:16:40.055Z,112
2018-06-21T05:17:40.013Z,113
2018-06-21T05:18:40.100Z,113
2018-06-21T05:19:40.008Z,124
2018-06-21T05:20:40.015Z,122
2018-06-21T05:21:40.101Z,114
2018-06-21T05:22:40.110Z,114
2018-06-21T05:23:39.978Z,121
2018-06-21T05:24:40.119Z,133
2018-06-21T05:25:40.111Z,136
2018-06-21T05:26:40.141Z,134
2018-06-21T05:27:40.073Z,116
2018-06-21T05:28:40.111Z,112
2018-06-21T05:29:40.017Z,123
2018-06-21T05:30:40.033Z,127
2018-06-21T05:31:40.118Z,126
2018-06-21T05:32:40.014Z,109
2018-06-21T05:33:40.148Z,127
2018-06-21T05:34:40.088Z,124
2018-06-21T05:35:40.039Z,123
2018-06-21T05:36:40.039Z,145
2018-06-21T05:37:40.032Z,143
2018-06-21T05:38:40.028Z,142
2018-06-21T05:39:39.991Z,155
2018-06-21T05:40:40.027Z,161
2018-06-21T05:41:40.010Z,157
2018-06-21T05:42:40.058Z,149
2018-06-21T05:43:40.012Z,145
2018-06-21T05:44:40.107Z,139
2018-06-21T05:45:39.998Z,111
2018-06-21T05:46:40.059Z,119
2018-06-21T05:47:40.063Z,116
2018-06-21T05:48:40.016Z,113
2018-06-21T05:49:40.130Z,114
2018-06-21T05:50:40.126Z,109
2018-06-21T05:51:40.059Z,108
2018-06-21T05:52:40.101Z,107
2018-06-21T05:53:40.137Z,111
2018-06-21T05:54:40.013Z,114
2018-06-21T05:55:40.069Z,118
2018-06-21T05:56:40.165Z,126
2018-06-21T05:57:40.074Z,127
2018-06-21T05:58:40.064Z,127
2018-06-21T05:59:40.066Z,125
2018-06-21T06:00:40.072Z,124
2018-06-21T06:01:40.132Z,124
2018-06-21T06:02:40.069Z,120
2018-06-21T06:03:40.174Z,109
2018-06-21T06:04:40.133Z,118
2018-06-21T06:05:40.201Z,128
2018-06-21T06:06:40.098Z,129
2018-06-21T06:07:40.098Z,134
2018-06-21T06:08:40.036Z,128
2018-06-21T06:09:40.070Z,121
2018-06-21T06:10:40.034Z,155
2018-06-21T06:11:40.073Z,162
2018-06-21T06:12:40.126Z,172
2018-06-21T06:13:40.126Z,184
2018-06-21T06:14:40.104Z,191
2018-06-21T06:15:40.045Z,186
2018-06-21T06:16:40.142Z,209
2018-06-21T06:17:40.081Z,215
2018-06-21T06:18:40.195Z,220
2018-06-21T06:19:40.140Z,206
2018-06-21T06:20:40.150Z,222
2018-06-21T06:21:40.077Z,212
2018-06-21T06:22:40.151Z,219
2018-06-21T06:23:40.082Z,234
2018-06-21T06:24:40.086Z,238
2018-06-21T06:25:40.154Z,242
2018-06-21T06:26:40.154Z,252
2018-06-21T06:27:40.082Z,245
2018-06-21T06:28:40.175Z,259
2018-06-21T06:29:40.155Z,266
2018-06-21T06:30:40.152Z,272
2018-06-21T06:31:40.085Z,272
2018-06-21T06:32:40.091Z,271
2018-06-21T06:33:40.157Z,254
2018-06-21T06:34:40.179Z,271
2018-06-21T06:35:40.090Z,275
2018-06-21T06:36:40.155Z,281
2018-06-21T06:37:40.091Z,281
2018-06-21T06:38:40.109Z,279
2018-06-21T06:39:40.099Z,285
2018-06-21T06:40:40.094Z,265
2018-06-21T06:41:40.131Z,292
2018-06-21T06:42:40.161Z,290
2018-06-21T06:43:40.135Z,289
2018-06-21T06:44:40.093Z,286
2018-06-21T06:45:40.097Z,281
2018-06-21T06:46:40.123Z,274
2018-06-21T06:47:40.070Z,268
2018-06-21T06:48:40.142Z,271
2018-06-21T06:49:40.135Z,267
2018-06-21T06:50:40.169Z,266
2018-06-21T06:51:40.105Z,250
2018-06-21T06:52:40.087Z,251
2018-06-21T06:53:40.193Z,330
2018-06-21T06:54:40.252Z,350
2018-06-21T06:55:40.201Z,363
2018-06-21T06:56:40.037Z,409
2018-06-21T06:57:40.165Z,344
2018-06-21T06:58:40.167Z,353
2018-06-21T06:59:40.077Z,524
2018-06-21T07:00:40.078Z,470
2018-06-21T07:01:40.164Z,389
2018-06-21T07:02:40.052Z,409
2018-06-21T07:03:40.177Z,409
2018-06-21T07:04:40.083Z,397
2018-06-21T07:05:40.061Z,424
2018-06-21T07:06:40.153Z,451
2018-06-21T07:07:40.205Z,444
2018-06-21T07:08:40.157Z,425
2018-06-21T07:09:40.178Z,390
2018-06-21T07:10:40.146Z,331
2018-06-21T07:11:40.149Z,320
2018-06-21T07:12:40.151Z,342
2018-06-21T07:13:40.146Z,366
2018-06-21T07:14:40.202Z,390
2018-06-21T07:15:40.162Z,436
2018-06-21T07:16:40.146Z,438
2018-06-21T07:17:40.215Z,525
2018-06-21T07:18:40.156Z,440
2018-06-21T07:19:40.139Z,420
2018-06-21T07:20:40.106Z,412
2018-06-21T07:21:40.190Z,452
2018-06-21T07:22:40.156Z,400
2018-06-21T07:23:40.161Z,395
2018-06-21T07:24:40.215Z,451
2018-06-21T07:25:40.196Z,477
2018-06-21T07:26:40.076Z,447
2018-06-21T07:27:40.056Z,453
2018-06-21T07:28:40.127Z,471
2018-06-21T07:29:40.092Z,407
2018-06-21T07:30:40.125Z,476
2018-06-21T07:31:40.115Z,294
2018-06-21T07:32:40.082Z,242
2018-06-21T07:33:40.142Z,243
2018-06-21T07:34:40.066Z,283
2018-06-21T07:35:40.128Z,317
2018-06-21T07:36:40.132Z,348
2018-06-21T07:37:40.195Z,365
2018-06-21T07:38:40.135Z,362
2018-06-21T07:39:40.201Z,302
2018-06-21T07:40:40.198Z,286
2018-06-21T07:41:40.141Z,296
2018-06-21T07:42:40.133Z,312
2018-06-21T07:43:40.134Z,324
2018-06-21T07:44:40.140Z,295
2018-06-21T07:45:40.203Z,234
2018-06-21T07:46:40.230Z,217
2018-06-21T07:47:40.170Z,246
2018-06-21T07:48:40.226Z,241
2018-06-21T07:50:40.241Z,150
2018-06-21T07:51:40.238Z,103
2018-06-21T07:52:40.177Z,87
2018-06-21T07:53:40.177Z,87
2018-06-21T07:54:40.116Z,80
2018-06-21T07:55:40.204Z,59
2018-06-21T07:56:40.079Z,46
2018-06-21T07:57:40.079Z,39
2018-06-21T07:58:40.138Z,37
2018-06-21T07:59:40.146Z,60
2018-06-21T08:00:40.110Z,84
2018-06-21T08:01:40.147Z,99
2018-06-21T08:02:40.190Z,132
2018-06-21T08:03:40.136Z,167
2018-06-21T08:04:40.199Z,162
2018-06-21T08:05:40.202Z,136
2018-06-21T08:06:40.152Z,100
2018-06-21T08:07:40.121Z,68
2018-06-21T08:08:40.207Z,58
2018-06-21T08:09:40.156Z,65
2018-06-21T08:10:40.213Z,67
2018-06-21T08:11:40.175Z,45
2018-06-21T08:12:40.157Z,33
2018-06-21T08:13:40.204Z,35
2018-06-21T08:14:40.212Z,35
2018-06-21T08:15:40.209Z,41
2018-06-21T08:16:40.195Z,48
2018-06-21T08:17:40.228Z,57
2018-06-21T08:18:40.251Z,73
2018-06-21T08:19:40.257Z,95
2018-06-21T08:20:40.260Z,104
2018-06-21T08:21:40.135Z,106
2018-06-21T08:22:40.132Z,93
2018-06-21T08:23:40.265Z,100
2018-06-21T08:24:40.205Z,117
2018-06-21T08:25:40.226Z,127
2018-06-21T08:26:40.248Z,82
2018-06-21T08:27:40.169Z,57
2018-06-21T08:28:40.233Z,72
2018-06-21T08:29:40.234Z,112
2018-06-21T08:30:40.237Z,153
2018-06-21T08:31:40.165Z,227
2018-06-21T08:32:40.165Z,303
2018-06-21T08:33:40.167Z,281
2018-06-21T08:34:40.173Z,266
2018-06-21T08:35:40.240Z,262
2018-06-21T08:36:40.140Z,282
2018-06-21T08:37:40.117Z,302
2018-06-21T08:38:40.188Z,298
2018-06-21T08:39:40.137Z,272
2018-06-21T08:40:40.180Z,229
2018-06-21T08:41:40.097Z,208
2018-06-21T08:42:40.138Z,214
2018-06-21T08:43:40.187Z,199
2018-06-21T08:44:40.144Z,197
2018-06-21T08:45:40.213Z,162
2018-06-21T08:46:40.234Z,86
2018-06-21T08:47:40.178Z,76
2018-06-21T08:48:40.202Z,86
2018-06-21T08:49:40.246Z,59
2018-06-21T08:50:40.238Z,76
2018-06-21T08:51:40.182Z,49
2018-06-21T08:52:40.248Z,45
2018-06-21T08:53:40.247Z,47
2018-06-21T08:54:40.185Z,62
2018-06-21T08:55:40.271Z,80
2018-06-21T08:56:40.241Z,118
2018-06-21T08:57:40.184Z,141
2018-06-21T08:58:40.184Z,143
2018-06-21T08:59:40.183Z,143
2018-06-21T09:00:40.186Z,142
2018-06-21T09:01:40.252Z,148
2018-06-21T09:02:40.218Z,166
2018-06-21T09:03:40.285Z,175
2018-06-21T09:04:40.261Z,159
2018-06-21T09:05:40.190Z,148
2018-06-21T09:06:40.255Z,127
2018-06-21T09:07:40.145Z,126
2018-06-21T09:08:40.243Z,141
2018-06-21T09:09:40.247Z,127
2018-06-21T09:10:40.182Z,175
2018-06-21T09:11:40.238Z,212
2018-06-21T09:12:40.219Z,256
2018-06-21T09:13:40.130Z,255
2018-06-21T09:14:40.246Z,229
2018-06-21T09:15:40.201Z,231
2018-06-21T09:16:40.224Z,263
2018-06-21T09:17:40.167Z,287
2018-06-21T09:18:40.296Z,296
2018-06-21T09:19:40.230Z,262
2018-06-21T09:20:40.167Z,256
2018-06-21T09:21:40.301Z,275
2018-06-21T09:22:40.309Z,284
2018-06-21T09:23:40.230Z,280
2018-06-21T09:24:40.285Z,248
2018-06-21T09:25:40.307Z,206
2018-06-21T09:26:40.236Z,240
2018-06-21T09:27:40.235Z,354
2018-06-21T09:28:40.272Z,314
2018-06-21T09:29:40.291Z,265
2018-06-21T09:30:40.308Z,205
2018-06-21T09:31:40.303Z,186
2018-06-21T09:32:40.240Z,188
2018-06-21T09:33:40.233Z,180
2018-06-21T09:34:40.297Z,169
2018-06-21T09:35:40.302Z,150
2018-06-21T09:36:40.177Z,138
2018-06-21T09:37:40.312Z,137
2018-06-21T09:38:40.239Z,149
2018-06-21T09:39:40.251Z,167
2018-06-21T09:40:40.298Z,183
2018-06-21T09:41:40.180Z,210
2018-06-21T09:42:40.236Z,257
2018-06-21T09:43:50.296Z,327
2018-06-21T09:44:40.242Z,401
2018-06-21T09:45:40.281Z,507
2018-06-21T09:46:40.219Z,1015
2018-06-21T09:47:40.241Z,780
2018-06-21T09:48:40.283Z,1017
2018-06-21T09:49:40.189Z,599
2018-06-21T09:50:40.266Z,649
2018-06-21T09:51:40.307Z,1500
2018-06-21T09:52:40.247Z,713
2018-06-21T09:53:40.260Z,1029
2018-06-21T09:54:40.302Z,712
2018-06-21T09:55:40.246Z,687
2018-06-21T09:56:40.284Z,862
2018-06-21T09:57:40.227Z,650
2018-06-21T09:58:40.246Z,465
2018-06-21T09:59:40.271Z,513
2018-06-21T10:00:40.195Z,484
2018-06-21T10:01:40.257Z,341
2018-06-21T10:02:40.311Z,279
2018-06-21T10:03:40.294Z,239
2018-06-21T10:04:40.260Z,243
2018-06-21T10:05:40.195Z,221
2018-06-21T10:06:40.321Z,211
2018-06-21T10:07:40.232Z,235
2018-06-21T10:08:40.231Z,284
2018-06-21T10:09:40.299Z,318
2018-06-21T10:10:40.229Z,295
2018-06-21T10:11:40.234Z,256
2018-06-21T10:12:40.237Z,227
2018-06-21T10:13:40.194Z,206
2018-06-21T10:14:40.234Z,195
2018-06-21T10:15:40.326Z,207
2018-06-21T10:16:40.302Z,225
2018-06-21T10:17:40.244Z,240
2018-06-21T10:18:40.307Z,285
2018-06-21T10:19:40.308Z,321
2018-06-21T10:20:40.240Z,363
2018-06-21T10:21:40.237Z,393
2018-06-21T10:22:40.305Z,350
2018-06-21T10:23:40.236Z,358
2018-06-21T10:24:40.308Z,412
2018-06-21T10:25:40.241Z,480
2018-06-21T10:26:40.310Z,464
2018-06-21T10:27:40.335Z,436
2018-06-21T10:28:40.345Z,441
2018-06-21T10:29:40.344Z,526
2018-06-21T10:30:40.310Z,791
2018-06-21T10:31:40.216Z,736
2018-06-21T10:32:40.344Z,1010
2018-06-21T10:33:40.252Z,1199
2018-06-21T10:34:40.316Z,545
2018-06-21T10:35:40.341Z,1470
2018-06-21T10:36:40.285Z,1455
2018-06-21T10:37:40.256Z,1398
2018-06-21T10:38:40.322Z,1116
2018-06-21T10:39:40.318Z,1218
2018-06-21T10:40:40.253Z,1265
2018-06-21T10:41:40.331Z,1136
2018-06-21T10:42:40.351Z,614
2018-06-21T10:43:40.322Z,984
2018-06-21T10:44:40.250Z,1006
2018-06-21T10:45:40.320Z,689
2018-06-21T10:46:40.257Z,1069
2018-06-21T10:47:40.336Z,978
2018-06-21T10:48:40.261Z,1100
2018-06-21T10:49:40.345Z,1447
2018-06-21T10:50:40.285Z,869
2018-06-21T10:51:40.355Z,1146
2018-06-21T10:52:40.298Z,1284
2018-06-21T10:53:40.365Z,1438
2018-06-21T10:54:40.360Z,1093
2018-06-21T10:55:40.360Z,1040
2018-06-21T10:56:40.283Z,971
2018-06-21T10:57:40.259Z,940
2018-06-21T10:58:40.264Z,1103
2018-06-21T10:59:40.330Z,1246
2018-06-21T11:00:40.337Z,1311
2018-06-21T11:01:40.347Z,827
2018-06-21T11:02:40.266Z,638
2018-06-21T11:03:40.346Z,674
2018-06-21T11:04:40.270Z,691
2018-06-21T11:05:40.338Z,849
2018-06-21T11:06:40.272Z,885
2018-06-21T11:07:40.270Z,792
2018-06-21T11:08:40.388Z,753
2018-06-21T11:09:40.351Z,717
2018-06-21T11:10:40.274Z,681
2018-06-21T11:11:40.273Z,638
2018-06-21T11:12:40.342Z,604
2018-06-21T11:13:40.278Z,563
2018-06-21T11:14:40.360Z,520
2018-06-21T11:15:40.292Z,493
2018-06-21T11:16:40.362Z,484
2018-06-21T11:17:40.377Z,484
2018-06-21T11:18:40.313Z,479
2018-06-21T11:19:40.374Z,473
2018-06-21T11:20:40.250Z,474
2018-06-21T11:21:40.307Z,481
2018-06-21T11:22:40.378Z,465
2018-06-21T11:23:40.312Z,463
2018-06-21T11:24:40.376Z,467
2018-06-21T11:25:40.317Z,454
2018-06-21T11:26:40.413Z,452
2018-06-21T11:27:40.343Z,504
2018-06-21T11:28:40.276Z,715
2018-06-21T11:29:40.285Z,1245
2018-06-21T11:30:40.351Z,1418
2018-06-21T11:31:40.351Z,655
2018-06-21T11:32:40.354Z,387
2018-06-21T11:33:40.293Z,211
2018-06-21T11:34:40.285Z,186
2018-06-21T11:35:40.352Z,220
2018-06-21T11:36:40.292Z,177
2018-06-21T11:37:40.354Z,168
2018-06-21T11:38:40.298Z,219
2018-06-21T11:39:40.357Z,1295
2018-06-21T11:40:40.363Z,1308
2018-06-21T11:41:40.359Z,1318
2018-06-21T11:42:40.294Z,1309
2018-06-21T11:43:40.295Z,336
2018-06-21T11:44:40.325Z,330
2018-06-21T11:45:40.294Z,1308
2018-06-21T11:46:40.423Z,1305
2018-06-21T11:47:40.361Z,1310
2018-06-21T11:48:40.294Z,1360
2018-06-21T11:49:40.367Z,358
2018-06-21T11:50:40.297Z,313
2018-06-21T11:51:40.303Z,305
2018-06-21T11:52:40.366Z,500
2018-06-21T11:53:40.298Z,596
2018-06-21T11:54:40.365Z,634
2018-06-21T11:55:40.327Z,1251
2018-06-21T11:56:40.300Z,1217
2018-06-21T11:57:40.339Z,1192
2018-06-21T11:58:40.346Z,1184
2018-06-21T11:59:40.327Z,1182
2018-06-21T12:00:40.315Z,1157
2018-06-21T12:01:40.431Z,1189
2018-06-21T12:02:40.398Z,1188
2018-06-21T12:03:40.336Z,1172
2018-06-21T12:04:40.379Z,1167
2018-06-21T12:05:40.416Z,1154
2018-06-21T12:06:40.417Z,1163
2018-06-21T12:07:40.362Z,1175
2018-06-21T12:08:40.305Z,1240
2018-06-21T12:09:40.242Z,1326
2018-06-21T12:10:40.312Z,306
2018-06-21T12:11:40.301Z,206
2018-06-21T12:12:40.270Z,201
2018-06-21T12:13:40.312Z,1298
2018-06-21T12:14:40.251Z,257
2018-06-21T12:15:40.254Z,373
2018-06-21T12:16:40.280Z,231
2018-06-21T12:17:40.413Z,1254
2018-06-21T12:18:40.430Z,1223
2018-06-21T12:19:40.385Z,1209
2018-06-21T12:20:40.360Z,1193
2018-06-21T12:21:40.364Z,1182
2018-06-21T12:22:40.289Z,1173
2018-06-21T12:23:40.364Z,1154
2018-06-21T12:24:40.362Z,1155
2018-06-21T12:25:40.362Z,1167
2018-06-21T12:26:40.392Z,1171
2018-06-21T12:27:40.326Z,1177
2018-06-21T12:28:40.316Z,1183
2018-06-21T12:29:40.296Z,1235
2018-06-21T12:30:40.368Z,1054
2018-06-21T12:31:40.352Z,1238
2018-06-21T12:32:40.360Z,1219
2018-06-21T12:33:40.303Z,1192
2018-06-21T12:34:40.417Z,1177
2018-06-21T12:35:40.352Z,1163
2018-06-21T12:36:40.436Z,1154
2018-06-21T12:37:40.343Z,1169
2018-06-21T12:38:40.304Z,1174
2018-06-21T12:39:40.300Z,1167
2018-06-21T12:40:40.343Z,1166
2018-06-21T12:41:40.300Z,1159
2018-06-21T12:42:40.345Z,1152
2018-06-21T12:43:40.305Z,1159
2018-06-21T12:44:40.347Z,1156
2018-06-21T12:45:40.344Z,1157
2018-06-21T12:46:40.361Z,1154
2018-06-21T12:47:40.335Z,1148
2018-06-21T12:48:40.341Z,1149
2018-06-21T12:49:40.341Z,1166
2018-06-21T12:50:40.408Z,1161
2018-06-21T12:51:40.406Z,1167
2018-06-21T12:52:40.347Z,1188
2018-06-21T12:53:40.443Z,1239
2018-06-21T12:54:40.411Z,1277
2018-06-21T12:55:40.343Z,1290
2018-06-21T12:56:40.343Z,1275
2018-06-21T12:57:40.438Z,1274
2018-06-21T12:58:40.388Z,1291
2018-06-21T12:59:40.443Z,1236
2018-06-21T13:00:40.363Z,1299
2018-06-21T13:01:40.380Z,412
2018-06-21T13:02:40.437Z,1329
2018-06-21T13:03:40.414Z,1294
2018-06-21T13:04:40.420Z,1283
2018-06-21T13:05:40.394Z,1298
2018-06-21T13:06:40.322Z,374
2018-06-21T13:07:40.419Z,1267
2018-06-21T13:08:40.454Z,1285
2018-06-21T13:09:40.337Z,1252
2018-06-21T13:10:40.444Z,1226
2018-06-21T13:11:40.383Z,389
2018-06-21T13:12:40.390Z,318
2018-06-21T13:13:40.399Z,303
2018-06-21T13:14:40.329Z,283
2018-06-21T13:15:40.424Z,280
2018-06-21T13:16:40.422Z,264
2018-06-21T13:17:40.389Z,257
2018-06-21T13:18:40.346Z,1309
2018-06-21T13:20:40.441Z,917
2018-06-21T13:21:40.329Z,272
2018-06-21T13:22:40.398Z,1211
2018-06-21T13:23:40.463Z,1174
2018-06-21T13:24:40.402Z,1177
2018-06-21T13:25:40.397Z,1200
2018-06-21T13:26:40.392Z,1237
2018-06-21T13:27:40.324Z,1240
2018-06-21T13:28:40.396Z,1241
2018-06-21T13:29:40.398Z,1246
2018-06-21T13:30:40.386Z,1255
2018-06-21T13:31:40.388Z,1147
2018-06-21T13:32:40.415Z,423
2018-06-21T13:33:40.399Z,313
2018-06-21T13:34:40.410Z,1162
2018-06-21T13:35:40.334Z,1145
2018-06-21T13:36:40.365Z,1118
2018-06-21T13:37:40.305Z,1111
2018-06-21T13:38:40.368Z,1091
2018-06-21T13:39:40.306Z,1091
2018-06-21T13:40:40.328Z,187
2018-06-21T13:41:40.373Z,206
2018-06-21T13:42:40.432Z,275
2018-06-21T13:43:40.410Z,1212
2018-06-21T13:44:40.434Z,1137
2018-06-21T13:45:40.327Z,1099
2018-06-21T13:46:40.353Z,1094
2018-06-21T13:47:40.496Z,1100
2018-06-21T13:48:40.346Z,1065
2018-06-21T13:49:40.446Z,415
2018-06-21T13:50:40.348Z,1065
2018-06-21T13:51:40.364Z,972
2018-06-21T13:52:40.388Z,1077
2018-06-21T13:53:40.351Z,1076
2018-06-21T13:54:40.492Z,1079
2018-06-21T13:55:40.352Z,1067
2018-06-21T13:56:40.372Z,1059
2018-06-21T13:57:40.356Z,1064
2018-06-21T13:58:40.428Z,1068
2018-06-21T13:59:40.535Z,1087
2018-06-21T14:00:40.485Z,1109
2018-06-21T14:01:40.484Z,1109
2018-06-21T14:02:40.412Z,1087
2018-06-21T14:03:40.480Z,1079
2018-06-21T14:04:40.418Z,1115
2018-06-21T14:05:40.477Z,295
2018-06-21T14:06:40.470Z,282
2018-06-21T14:07:40.573Z,298
2018-06-21T14:08:40.471Z,446
2018-06-21T14:09:40.455Z,1236
2018-06-21T14:10:40.345Z,1173
2018-06-21T14:11:40.420Z,1091